createdAt,value
2022-11-17T00:01:48.617Z,7.40
2022-11-17T00:04:17.589Z,10.48
2022-11-17T00:06:53.621Z,8.60
2022-11-17T00:09:23.376Z,12.98
2022-11-17T00:12:10.654Z,9.23
2022-11-17T00:14:42.175Z,8.90
2022-11-17T00:17:15.189Z,7.93
2022-11-17T00:20:02.486Z,12.45
2022-11-17T00:22:34.350Z,10.23
2022-11-17T00:25:03.303Z,7.07
2022-11-17T00:27:32.265Z,13.10
2022-11-17T00:30:01.264Z,7.00
2022-11-17T00:32:48.245Z,13.43
2022-11-17T00:35:17.259Z,6.43
2022-11-17T00:38:04.205Z,7.45
2022-11-17T00:40:33.249Z,9.13
2022-11-17T00:43:02.202Z,7.70
2022-11-17T00:45:31.173Z,27.15
2022-11-17T00:48:00.186Z,12.25
2022-11-17T00:50:29.162Z,13.32
2022-11-17T00:52:58.143Z,8.43
2022-11-17T00:55:27.188Z,6.13
2022-11-17T00:57:56.282Z,7.85
2022-11-17T01:00:25.247Z,12.75
2022-11-17T01:02:54.192Z,7.18
2022-11-17T01:05:23.188Z,10.68
2022-11-17T01:07:54.248Z,7.68
2022-11-17T01:10:23.167Z,7.75
2022-11-17T01:12:52.077Z,8.15
2022-11-17T01:15:21.038Z,10.88
2022-11-17T01:17:49.945Z,5.63
2022-11-17T01:20:19.042Z,9.93
2022-11-17T01:22:48.034Z,8.63
2022-11-17T01:25:20.808Z,7.57
2022-11-17T01:27:49.990Z,6.22
2022-11-17T01:30:19.447Z,7.85
2022-11-17T01:32:48.626Z,16.95
2022-11-17T01:35:17.773Z,15.63
2022-11-17T01:37:46.694Z,8.35
2022-11-17T01:40:15.681Z,9.02
2022-11-17T01:42:44.650Z,12.88
2022-11-17T01:45:25.802Z,14.55
2022-11-17T01:48:01.443Z,16.35
2022-11-17T01:50:46.853Z,14.57
2022-11-17T01:53:19.476Z,15.80
2022-11-17T01:55:59.125Z,14.55
2022-11-17T01:58:35.182Z,14.57
2022-11-17T02:01:04.356Z,12.07
2022-11-17T02:03:35.702Z,12.82
2022-11-17T02:06:04.759Z,8.02
2022-11-17T02:08:35.268Z,5.40
2022-11-17T02:11:08.771Z,11.82
2022-11-17T02:13:38.622Z,11.60
2022-11-17T02:16:12.631Z,6.35
2022-11-17T02:18:43.656Z,9.73
2022-11-17T02:21:24.845Z,8.43
2022-11-17T02:24:24.339Z,6.05
2022-11-17T02:27:07.990Z,6.57
2022-11-17T02:30:03.259Z,8.50
2022-11-17T02:33:10.588Z,10.48
2022-11-17T02:35:52.365Z,6.07
2022-11-17T02:38:44.641Z,8.95
2022-11-17T02:41:26.425Z,4.70
2022-11-17T02:44:10.025Z,9.63
2022-11-17T02:46:42.149Z,11.68
2022-11-17T02:49:22.341Z,8.23
2022-11-17T02:51:55.316Z,6.13
2022-11-17T02:54:26.427Z,10.70
2022-11-17T02:56:55.819Z,26.70
2022-11-17T02:59:38.043Z,9.32
2022-11-17T03:02:29.719Z,7.95
2022-11-17T03:05:28.721Z,7.95
2022-11-17T03:08:22.376Z,6.88
2022-11-17T03:11:06.928Z,10.05
2022-11-17T03:13:53.201Z,10.20
2022-11-17T03:16:40.543Z,6.60
2022-11-17T03:19:46.136Z,8.65
2022-11-17T03:22:49.527Z,31.90
2022-11-17T03:25:22.535Z,6.55
2022-11-17T03:27:58.007Z,9.43
2022-11-17T03:30:30.858Z,10.32
2022-11-17T03:33:09.836Z,10.65
2022-11-17T03:35:46.297Z,10.07
2022-11-17T03:38:20.054Z,18.50
2022-11-17T03:40:52.507Z,7.00
2022-11-17T03:43:22.993Z,10.18
2022-11-17T03:45:54.265Z,6.00
2022-11-17T03:48:23.247Z,8.57
2022-11-17T03:51:07.601Z,10.15
2022-11-17T03:53:37.642Z,9.45
2022-11-17T03:56:09.617Z,14.65
2022-11-17T03:59:02.566Z,9.85
2022-11-17T04:01:34.611Z,7.53
2022-11-17T04:04:03.676Z,10.63
2022-11-17T04:06:32.636Z,10.05
2022-11-17T04:09:01.604Z,7.22
2022-11-17T04:11:48.738Z,9.02
2022-11-17T04:14:35.824Z,4.97
2022-11-17T04:17:04.940Z,9.45
2022-11-17T04:19:34.009Z,7.38
2022-11-17T04:22:03.022Z,6.53
2022-11-17T04:24:32.034Z,11.55
2022-11-17T04:27:19.444Z,8.38
2022-11-17T04:29:48.341Z,11.15
2022-11-17T04:32:17.318Z,8.38
2022-11-17T04:34:46.208Z,29.95
2022-11-17T04:37:18.533Z,7.10
2022-11-17T04:39:47.919Z,11.63
2022-11-17T04:42:16.882Z,9.50
2022-11-17T04:44:45.901Z,12.20
2022-11-17T04:47:15.550Z,10.73
2022-11-17T04:49:47.348Z,11.93
2022-11-17T04:52:16.238Z,6.10
2022-11-17T04:54:45.126Z,10.23
2022-11-17T04:57:14.072Z,5.85
2022-11-17T04:59:42.994Z,6.38
2022-11-17T05:02:11.895Z,7.47
2022-11-17T05:04:59.160Z,5.20
2022-11-17T05:07:29.230Z,4.90
2022-11-17T05:09:58.292Z,5.68
2022-11-17T05:12:45.666Z,7.75
2022-11-17T05:15:34.399Z,6.75
2022-11-17T05:18:03.329Z,4.93
2022-11-17T05:20:34.539Z,11.32
2022-11-17T05:23:21.490Z,8.48
2022-11-17T05:25:54.528Z,9.80
2022-11-17T05:28:23.548Z,5.53
2022-11-17T05:30:52.615Z,5.60
2022-11-17T05:33:21.541Z,5.75
2022-11-17T05:35:50.499Z,5.30
2022-11-17T05:38:19.456Z,7.03
2022-11-17T05:40:48.402Z,9.30
2022-11-17T05:43:17.348Z,7.45
2022-11-17T05:45:49.595Z,5.20
2022-11-17T05:48:18.729Z,11.60
2022-11-17T05:50:47.845Z,4.88
2022-11-17T05:53:16.812Z,9.80
2022-11-17T05:55:45.801Z,7.70
2022-11-17T05:58:28.200Z,15.00
2022-11-17T06:00:59.139Z,5.18
2022-11-17T06:03:36.994Z,6.68
2022-11-17T06:06:06.364Z,5.57
2022-11-17T06:08:36.513Z,7.68
2022-11-17T06:11:05.728Z,6.93
2022-11-17T06:13:34.865Z,4.72
2022-11-17T06:16:07.818Z,6.25
2022-11-17T06:18:43.059Z,5.60
2022-11-17T06:21:13.949Z,5.18
2022-11-17T06:23:43.525Z,5.00
2022-11-17T06:26:13.683Z,5.25
2022-11-17T06:28:45.583Z,4.00
2022-11-17T06:31:15.694Z,5.15
2022-11-17T06:33:45.357Z,17.15
2022-11-17T06:36:14.283Z,4.95
2022-11-17T06:38:43.228Z,6.88
2022-11-17T06:41:12.339Z,14.25
2022-11-17T06:43:41.246Z,4.03
2022-11-17T06:46:10.177Z,4.43
2022-11-17T06:48:39.388Z,5.00
2022-11-17T06:51:09.066Z,6.72
2022-11-17T06:53:38.124Z,6.75
2022-11-17T06:56:08.729Z,7.32
2022-11-17T06:58:39.936Z,4.70
2022-11-17T07:01:16.387Z,7.75
2022-11-17T07:03:45.473Z,4.88
2022-11-17T07:06:14.835Z,5.18
2022-11-17T07:08:49.797Z,5.00
2022-11-17T07:11:19.281Z,4.97
2022-11-17T07:13:48.307Z,6.40
2022-11-17T07:16:23.831Z,71.13
2022-11-17T07:18:54.705Z,5.68
2022-11-17T07:21:23.707Z,3.70
2022-11-17T07:23:52.860Z,5.70
2022-11-17T07:26:22.084Z,8.30
2022-11-17T07:28:53.971Z,5.07
2022-11-17T07:31:23.473Z,5.30
2022-11-17T07:33:54.433Z,4.53
2022-11-17T07:36:23.469Z,7.32
2022-11-17T07:38:52.390Z,7.43
2022-11-17T07:41:21.371Z,6.47
2022-11-17T07:43:50.302Z,5.70
2022-11-17T07:46:19.388Z,5.78
2022-11-17T07:48:48.422Z,3.88
2022-11-17T07:51:18.591Z,3.67
2022-11-17T07:53:47.633Z,3.80
2022-11-17T07:56:16.676Z,5.35
2022-11-17T07:58:45.787Z,8.25
2022-11-17T08:01:18.787Z,6.55
2022-11-17T08:03:47.866Z,2.88
2022-11-17T08:06:18.104Z,7.45
2022-11-17T08:08:49.556Z,3.17
2022-11-17T08:11:20.463Z,3.88
2022-11-17T08:13:51.280Z,3.55
2022-11-17T08:16:20.338Z,6.28
2022-11-17T08:18:52.429Z,3.20
2022-11-17T08:21:24.324Z,5.60
2022-11-17T08:23:56.125Z,3.60
2022-11-17T08:26:26.687Z,3.88
2022-11-17T08:28:58.809Z,6.32
2022-11-17T08:31:30.445Z,2.78
2022-11-17T08:33:59.454Z,7.82
2022-11-17T08:36:28.416Z,2.78
2022-11-17T08:38:57.375Z,6.88
2022-11-17T08:41:27.490Z,3.28
2022-11-17T08:43:59.455Z,6.00
2022-11-17T08:46:28.727Z,6.20
2022-11-17T08:48:57.804Z,3.50
2022-11-17T08:51:26.801Z,6.80
2022-11-17T08:53:55.927Z,5.63
2022-11-17T08:56:24.895Z,7.65
2022-11-17T08:58:53.865Z,6.25
2022-11-17T09:01:22.967Z,4.13
2022-11-17T09:03:52.179Z,3.97
2022-11-17T09:06:21.271Z,6.05
2022-11-17T09:08:51.322Z,4.05
2022-11-17T09:11:21.356Z,3.70
2022-11-17T09:13:50.484Z,3.72
2022-11-17T09:16:19.902Z,3.78
2022-11-17T09:18:48.894Z,3.65
2022-11-17T09:21:18.245Z,3.38
2022-11-17T09:23:47.411Z,3.67
2022-11-17T09:26:17.633Z,5.57
2022-11-17T09:28:47.178Z,5.22
2022-11-17T09:31:20.190Z,3.60
2022-11-17T09:33:49.384Z,8.10
2022-11-17T09:36:19.055Z,5.53
2022-11-17T09:38:48.341Z,5.75
2022-11-17T09:41:30.028Z,8.63
2022-11-17T09:44:27.186Z,9.07
2022-11-17T09:47:05.173Z,13.00
2022-11-17T09:49:58.106Z,3.67
2022-11-17T09:52:56.616Z,24.02
2022-11-17T09:55:38.612Z,9.18
2022-11-17T09:58:45.984Z,4.72
2022-11-17T10:01:20.928Z,6.00
2022-11-17T10:03:51.980Z,7.90
2022-11-17T10:06:30.087Z,2.35
2022-11-17T10:09:08.243Z,10.70
2022-11-17T10:11:40.485Z,6.93
2022-11-17T10:14:15.855Z,5.15
2022-11-17T10:16:56.886Z,31.95
2022-11-17T10:19:31.888Z,4.80
2022-11-17T10:22:03.596Z,23.77
2022-11-17T10:24:35.842Z,13.10
2022-11-17T10:27:28.363Z,11.98
2022-11-17T10:30:15.777Z,6.72
2022-11-17T10:32:57.355Z,10.02
2022-11-17T10:35:27.277Z,10.30
2022-11-17T10:38:01.117Z,7.05
2022-11-17T10:40:46.561Z,7.07
2022-11-17T10:43:16.277Z,6.10
2022-11-17T10:46:04.142Z,8.40
2022-11-17T10:48:41.268Z,5.63
2022-11-17T10:51:20.608Z,7.57
2022-11-17T10:54:18.509Z,6.07
2022-11-17T10:56:54.292Z,6.18
2022-11-17T10:59:30.288Z,5.88
2022-11-17T11:01:59.605Z,6.90
2022-11-17T11:04:37.183Z,4.55
2022-11-17T11:07:14.323Z,4.32
2022-11-17T11:10:03.951Z,5.72
2022-11-17T11:12:53.900Z,5.85
2022-11-17T11:15:25.302Z,8.00
2022-11-17T11:17:54.573Z,5.93
2022-11-17T11:20:34.617Z,6.35
2022-11-17T11:23:47.333Z,5.65
2022-11-17T11:26:37.510Z,12.27
2022-11-17T11:29:14.075Z,5.63
2022-11-17T11:31:47.418Z,9.50
2022-11-17T11:34:25.508Z,7.22
2022-11-17T11:37:16.543Z,9.63
2022-11-17T11:39:48.603Z,9.52
2022-11-17T11:42:38.070Z,14.23
2022-11-17T11:45:48.313Z,13.20
2022-11-17T11:48:24.910Z,12.90
2022-11-17T11:50:57.813Z,16.10
2022-11-17T11:53:48.317Z,18.50
2022-11-17T11:56:29.155Z,14.63
2022-11-17T11:59:14.496Z,10.68
2022-11-17T12:01:52.707Z,12.60
2022-11-17T12:04:47.345Z,12.70
2022-11-17T12:07:19.357Z,14.02
2022-11-17T12:09:56.004Z,11.85
2022-11-17T12:12:35.418Z,18.23
2022-11-17T12:15:22.581Z,16.38
2022-11-17T12:17:58.671Z,19.33
2022-11-17T12:20:56.660Z,20.95
2022-11-17T12:24:07.206Z,18.20
2022-11-17T12:26:36.603Z,15.05
2022-11-17T12:29:23.742Z,19.13
2022-11-17T12:31:53.780Z,13.77
2022-11-17T12:34:36.949Z,16.67
2022-11-17T12:37:26.667Z,26.07
2022-11-17T12:40:01.342Z,22.38
2022-11-17T12:42:58.877Z,18.30
2022-11-17T12:45:28.160Z,15.45
2022-11-17T12:48:26.427Z,20.50
2022-11-17T12:51:18.527Z,16.85
2022-11-17T12:53:59.876Z,17.48
2022-11-17T12:56:42.712Z,31.60
2022-11-17T12:59:33.024Z,28.90
2022-11-17T13:02:20.569Z,28.27
2022-11-17T13:05:08.893Z,22.63
2022-11-17T13:07:38.111Z,22.55
2022-11-17T13:10:07.568Z,26.38
2022-11-17T13:12:37.254Z,21.45
2022-11-17T13:15:07.650Z,19.33
2022-11-17T13:17:43.658Z,19.83
2022-11-17T13:20:30.942Z,21.60
2022-11-17T13:23:34.042Z,19.55
2022-11-17T13:26:18.416Z,20.00
2022-11-17T13:28:48.745Z,27.85
2022-11-17T13:31:23.332Z,29.20
2022-11-17T13:34:08.869Z,25.02
2022-11-17T13:36:38.278Z,24.08
2022-11-17T13:39:24.263Z,20.52
2022-11-17T13:41:57.456Z,25.10
2022-11-17T13:44:29.064Z,27.88
2022-11-17T13:46:59.384Z,26.08
2022-11-17T13:49:38.991Z,33.72
2022-11-17T13:52:40.461Z,21.88
2022-11-17T13:55:17.218Z,28.75
2022-11-17T13:57:58.729Z,34.25
2022-11-17T14:00:28.513Z,27.48
2022-11-17T14:03:04.392Z,22.00
2022-11-17T14:05:34.744Z,25.70
2022-11-17T14:08:28.261Z,23.70
2022-11-17T14:11:12.547Z,26.17
2022-11-17T14:13:43.606Z,33.30
2022-11-17T14:16:36.154Z,38.65
2022-11-17T14:19:35.652Z,28.30
2022-11-17T14:22:09.435Z,33.67
2022-11-17T14:27:37.931Z,29.48
2022-11-17T14:30:08.120Z,34.40
2022-11-17T14:32:37.145Z,28.88
2022-11-17T14:35:06.295Z,31.00
2022-11-17T14:37:35.399Z,32.88
2022-11-17T14:40:06.319Z,31.55
2022-11-17T14:42:36.460Z,35.88
2022-11-17T14:45:05.891Z,31.70
2022-11-17T14:47:34.783Z,30.25
2022-11-17T14:50:04.531Z,33.25
2022-11-17T14:52:33.524Z,36.15
2022-11-17T14:55:02.545Z,32.60
2022-11-17T14:57:31.784Z,31.58
2022-11-17T15:00:00.879Z,43.33
2022-11-17T15:02:29.953Z,35.30
2022-11-17T15:05:00.917Z,31.38
2022-11-17T15:07:31.008Z,31.52
2022-11-17T15:10:00.005Z,34.25
2022-11-17T15:12:30.996Z,38.47
2022-11-17T15:15:00.202Z,37.53
2022-11-17T15:17:30.280Z,173.52
2022-11-17T15:19:59.222Z,51.85
2022-11-17T15:22:28.210Z,32.10
2022-11-17T15:24:57.242Z,34.60
2022-11-17T15:27:26.144Z,36.20
2022-11-17T15:29:55.149Z,41.80
2022-11-17T15:32:24.232Z,35.03
2022-11-17T15:34:53.162Z,40.95
2022-11-17T15:37:22.123Z,38.08
2022-11-17T15:39:51.050Z,42.25
2022-11-17T15:42:20.161Z,37.35
2022-11-17T15:44:49.082Z,39.92
2022-11-17T15:47:17.996Z,49.13
2022-11-17T15:49:48.043Z,53.03
2022-11-17T15:52:19.563Z,43.88
2022-11-17T15:54:59.360Z,44.85
2022-11-17T15:57:28.272Z,45.55
2022-11-17T15:59:57.222Z,43.13
2022-11-17T16:02:26.136Z,48.17
2022-11-17T16:04:55.008Z,68.07
2022-11-17T16:07:24.205Z,56.40
2022-11-17T16:09:53.900Z,37.30
2022-11-17T16:12:22.775Z,31.67
2022-11-17T16:14:51.752Z,33.83
2022-11-17T16:17:20.694Z,26.70
2022-11-17T16:19:49.726Z,29.15
2022-11-17T16:22:18.941Z,26.98
2022-11-17T16:24:48.011Z,31.25
2022-11-17T16:27:17.073Z,36.00
2022-11-17T16:29:46.041Z,31.00
2022-11-17T16:32:14.993Z,31.42
2022-11-17T16:34:44.793Z,27.75
2022-11-17T16:37:14.690Z,31.30
2022-11-17T16:39:43.681Z,30.05
2022-11-17T16:42:12.716Z,29.65
2022-11-17T16:44:41.775Z,28.35
2022-11-17T16:47:10.965Z,32.40
2022-11-17T16:49:39.986Z,31.58
2022-11-17T16:52:08.972Z,31.05
2022-11-17T16:54:38.680Z,27.45
2022-11-17T16:57:07.729Z,26.15
2022-11-17T16:59:37.688Z,24.17
2022-11-17T17:02:06.608Z,25.15
2022-11-17T17:04:35.626Z,30.05
2022-11-17T17:07:04.603Z,23.55
2022-11-17T17:09:36.065Z,26.50
2022-11-17T17:12:05.769Z,29.48
2022-11-17T17:14:34.734Z,21.55
2022-11-17T17:17:03.812Z,20.15
2022-11-17T17:19:32.877Z,25.30
2022-11-17T17:22:02.751Z,24.40
2022-11-17T17:24:31.826Z,26.50
2022-11-17T17:27:00.791Z,24.23
2022-11-17T17:29:29.683Z,26.98
2022-11-17T17:31:58.648Z,25.85
2022-11-17T17:34:27.683Z,31.33
2022-11-17T17:36:57.134Z,24.70
2022-11-17T17:39:26.021Z,29.35
2022-11-17T17:41:54.959Z,22.98
2022-11-17T17:44:23.964Z,23.58
2022-11-17T17:46:52.856Z,23.95
2022-11-17T17:49:21.952Z,22.52
2022-11-17T17:51:50.903Z,22.85
2022-11-17T17:54:22.004Z,27.65
2022-11-17T17:56:51.415Z,30.02
2022-11-17T17:59:20.663Z,27.23
2022-11-17T18:01:50.720Z,23.80
2022-11-17T18:04:19.710Z,24.88
2022-11-17T18:06:48.991Z,37.67
2022-11-17T18:09:21.019Z,25.77
2022-11-17T18:11:51.418Z,26.02
2022-11-17T18:14:25.163Z,29.85
2022-11-17T18:16:54.876Z,31.80
2022-11-17T18:19:28.254Z,27.13
2022-11-17T18:22:00.586Z,27.40
2022-11-17T18:24:29.609Z,25.48
2022-11-17T18:26:58.681Z,30.15
2022-11-17T18:29:27.799Z,22.38
2022-11-17T18:31:56.729Z,27.17
2022-11-17T18:34:26.785Z,24.92
2022-11-17T18:36:57.536Z,24.42
2022-11-17T18:39:28.519Z,25.40
2022-11-17T18:41:57.476Z,24.77
2022-11-17T18:44:26.653Z,23.33
2022-11-17T18:47:01.221Z,23.13
2022-11-17T18:49:32.639Z,23.27
2022-11-17T18:52:01.585Z,22.27
2022-11-17T18:54:30.782Z,20.98
2022-11-17T18:57:01.223Z,25.08
2022-11-17T18:59:30.296Z,23.20
2022-11-17T19:01:59.195Z,18.33
2022-11-17T19:04:28.108Z,19.33
2022-11-17T19:06:57.100Z,22.67
2022-11-17T19:09:26.108Z,24.73
2022-11-17T19:11:55.188Z,20.65
2022-11-17T19:14:24.158Z,25.88
2022-11-17T19:16:53.157Z,23.52
2022-11-17T19:19:22.051Z,21.38
2022-11-17T19:21:51.298Z,23.05
2022-11-17T19:24:20.439Z,21.63
2022-11-17T19:26:49.517Z,19.95
2022-11-17T19:29:18.429Z,23.70
2022-11-17T19:31:48.994Z,21.25
2022-11-17T19:34:18.093Z,22.50
2022-11-17T19:36:47.324Z,19.65
2022-11-17T19:39:16.518Z,21.10
2022-11-17T19:41:47.505Z,18.77
2022-11-17T19:44:16.589Z,21.70
2022-11-17T19:46:45.530Z,24.48
2022-11-17T19:49:15.262Z,23.08
2022-11-17T19:51:44.536Z,27.92
2022-11-17T19:54:15.398Z,25.50
2022-11-17T19:56:44.390Z,22.63
2022-11-17T19:59:16.362Z,22.08
2022-11-17T20:01:46.541Z,21.88
2022-11-17T20:04:15.721Z,21.77
2022-11-17T20:06:44.679Z,24.85
2022-11-17T20:09:15.966Z,21.15
2022-11-17T20:11:45.277Z,20.23
2022-11-17T20:14:15.563Z,25.95
2022-11-17T20:16:44.529Z,22.00
2022-11-17T20:19:15.045Z,21.83
2022-11-17T20:21:44.158Z,23.92
2022-11-17T20:24:13.422Z,21.35
2022-11-17T20:26:44.300Z,28.48
2022-11-17T20:29:13.266Z,23.55
2022-11-17T20:31:42.497Z,22.25
2022-11-17T20:34:14.354Z,26.63
2022-11-17T20:36:43.391Z,19.77
2022-11-17T20:39:12.461Z,24.98
2022-11-17T20:41:41.398Z,26.63
2022-11-17T20:44:24.936Z,20.27
2022-11-17T20:46:56.069Z,23.35
2022-11-17T20:49:25.725Z,25.00
2022-11-17T20:51:54.640Z,28.25
2022-11-17T20:54:23.706Z,22.63
2022-11-17T20:56:52.709Z,21.42
2022-11-17T20:59:22.227Z,22.45
2022-11-17T21:01:51.692Z,24.48
2022-11-17T21:04:20.646Z,22.88
2022-11-17T21:06:49.661Z,20.35
2022-11-17T21:09:19.011Z,23.48
2022-11-17T21:12:00.276Z,21.77
2022-11-17T21:14:29.559Z,22.52
2022-11-17T21:17:01.622Z,20.65
2022-11-17T21:19:35.304Z,22.77
2022-11-17T21:22:06.904Z,23.42
2022-11-17T21:24:35.898Z,22.67
2022-11-17T21:27:05.208Z,21.75
2022-11-17T21:29:34.500Z,21.90
2022-11-17T21:32:04.603Z,23.15
2022-11-17T21:34:33.660Z,23.60
2022-11-17T21:37:02.648Z,26.83
2022-11-17T21:39:31.648Z,22.92
2022-11-17T21:42:01.195Z,24.35
2022-11-17T21:44:30.116Z,25.63
2022-11-17T21:46:59.043Z,29.67
2022-11-17T21:49:27.960Z,25.52
2022-11-17T21:51:56.901Z,27.38
2022-11-17T21:54:25.842Z,24.88
2022-11-17T21:56:54.801Z,27.48
2022-11-17T21:59:23.736Z,23.08
2022-11-17T22:01:52.919Z,27.48
2022-11-17T22:04:21.912Z,26.00
2022-11-17T22:06:50.818Z,29.50
2022-11-17T22:09:20.301Z,30.80
2022-11-17T22:11:49.536Z,25.70
2022-11-17T22:14:20.522Z,25.63
2022-11-17T22:16:54.214Z,26.52
2022-11-17T22:19:24.888Z,27.50
2022-11-17T22:21:55.453Z,29.38
2022-11-17T22:24:24.649Z,30.45
2022-11-17T22:26:53.649Z,23.92
2022-11-17T22:29:23.805Z,30.08
2022-11-17T22:31:52.907Z,25.02
2022-11-17T22:34:22.032Z,21.17
2022-11-17T22:36:51.037Z,29.55
2022-11-17T22:39:20.430Z,21.08
2022-11-17T22:41:49.696Z,23.77
2022-11-17T22:44:19.011Z,30.67
2022-11-17T22:46:48.037Z,26.50
2022-11-17T22:49:17.311Z,29.95
2022-11-17T22:52:04.885Z,25.73
2022-11-17T22:54:34.501Z,31.92
2022-11-17T22:57:04.010Z,28.92
2022-11-17T22:59:33.780Z,21.65
2022-11-17T23:02:02.674Z,23.45
2022-11-17T23:04:32.190Z,27.98
2022-11-17T23:07:01.167Z,25.00
2022-11-17T23:09:30.907Z,26.98
2022-11-17T23:12:00.247Z,19.92
2022-11-17T23:14:29.240Z,25.65
2022-11-17T23:16:58.371Z,32.20
2022-11-17T23:19:27.235Z,28.92
2022-11-17T23:21:56.149Z,27.20
2022-11-17T23:24:25.053Z,29.50
2022-11-17T23:26:53.993Z,28.65
2022-11-17T23:29:23.018Z,24.10
2022-11-17T23:31:52.013Z,21.42
2022-11-17T23:34:21.554Z,28.15
2022-11-17T23:36:50.574Z,28.60
2022-11-17T23:39:19.853Z,29.05
2022-11-17T23:41:48.922Z,32.60
2022-11-17T23:44:17.878Z,31.70
2022-11-17T23:46:46.967Z,29.75
2022-11-17T23:49:16.279Z,25.95
2022-11-17T23:51:45.576Z,22.27
2022-11-17T23:54:14.895Z,24.88
2022-11-17T23:56:44.256Z,26.08
2022-11-17T23:59:13.360Z,23.80
